Time;durP1;ratioP1;P1;durP2;ratioP2;P2;SDS_P1;SDS_P2;PMS_P1;PMS_P2;Temp;Humidity;BMP_temperature;BMP_pressure;BME280_temperature;BME280_humidity;BME280_pressure;Samples;Min_cycle;Max_cycle;Signal;HPM_P1;HPM_P2
2023/12/17 00:01:07;;;;;;;17.13;9.38;;;2.00;83.70;;;;;;4957315;29;20024;-76
2023/12/17 00:03:41;;;;;;;18.98;11.07;;;2.00;83.50;;;;;;4939815;29;20445;-77
2023/12/17 00:08:58;;;;;;;13.82;8.88;;;1.90;83.60;;;;;;4949235;29;20349;-77
2023/12/17 00:14:22;;;;;;;10.65;7.05;;;1.90;83.80;;;;;;4957013;29;20046;-77
2023/12/17 00:16:58;;;;;;;13.40;7.72;;;2.00;83.80;;;;;;4939556;29;20392;-77
2023/12/17 00:19:27;;;;;;;12.20;7.28;;;2.10;83.80;;;;;;4939628;29;20090;-77
2023/12/17 00:21:53;;;;;;;12.63;7.80;;;2.10;83.60;;;;;;4956879;28;20461;-77
2023/12/17 00:24:18;;;;;;;10.80;6.90;;;2.10;83.40;;;;;;4956519;28;20050;-77
2023/12/17 00:26:44;;;;;;;9.50;5.93;;;2.10;83.10;;;;;;4956499;29;20039;-76
2023/12/17 00:29:09;;;;;;;7.75;5.00;;;2.20;83.00;;;;;;4956431;28;20015;-76
2023/12/17 00:31:35;;;;;;;12.27;7.18;;;2.20;82.80;;;;;;4956598;29;20082;-76
2023/12/17 00:34:01;;;;;;;9.43;6.43;;;2.00;81.80;;;;;;4956248;28;20042;-75
2023/12/17 00:36:39;;;;;;;10.32;6.38;;;1.90;82.60;;;;;;4956503;29;20380;-77
2023/12/17 00:39:05;;;;;;;13.27;7.88;;;1.90;83.20;;;;;;4956372;29;20037;-77
2023/12/17 00:41:31;;;;;;;16.20;8.13;;;1.90;83.10;;;;;;4956416;29;20102;-76
2023/12/17 00:43:57;;;;;;;10.10;6.15;;;1.90;83.40;;;;;;4956272;28;20447;-77
2023/12/17 00:46:23;;;;;;;9.93;6.22;;;2.00;83.60;;;;;;4956160;29;20107;-76
2023/12/17 00:48:48;;;;;;;8.32;5.40;;;2.00;83.50;;;;;;4956218;28;20019;-75
2023/12/17 00:51:14;;;;;;;11.75;7.15;;;2.10;83.70;;;;;;4956194;29;20416;-75
2023/12/17 00:53:39;;;;;;;13.25;6.32;;;2.10;83.00;;;;;;4956027;28;20140;-77
2023/12/17 00:56:05;;;;;;;11.10;6.60;;;2.10;82.70;;;;;;4955945;29;20491;-76
2023/12/17 00:58:31;;;;;;;9.82;6.22;;;2.10;82.60;;;;;;4938555;29;20665;-76
2023/12/17 01:00:56;;;;;;;10.07;5.68;;;2.10;82.60;;;;;;4955995;29;20396;-76
2023/12/17 01:03:31;;;;;;;9.85;7.05;;;2.20;82.40;;;;;;4955784;29;20035;-76
2023/12/17 01:06:07;;;;;;;8.70;5.53;;;2.20;82.30;;;;;;4955620;29;20027;-77
2023/12/17 01:08:41;;;;;;;10.60;5.55;;;2.20;82.10;;;;;;4938551;29;20365;-76
2023/12/17 01:11:11;;;;;;;8.65;6.07;;;2.20;82.10;;;;;;4938685;29;20118;-75
2023/12/17 01:13:38;;;;;;;14.82;6.15;;;2.30;82.20;;;;;;4938414;29;20122;-76
2023/12/17 01:16:06;;;;;;;9.40;5.88;;;2.30;81.70;;;;;;4955512;29;20177;-75
2023/12/17 01:18:32;;;;;;;9.02;6.30;;;2.30;81.60;;;;;;4938560;29;20030;-77
2023/12/17 01:21:00;;;;;;;10.45;6.60;;;2.30;81.20;;;;;;4955561;28;20032;-75
2023/12/17 01:23:28;;;;;;;9.20;5.57;;;2.30;81.00;;;;;;4955588;28;20023;-75
2023/12/17 01:26:16;;;;;;;10.57;5.35;;;2.30;81.10;;;;;;4955741;28;20053;-77
2023/12/17 01:28:42;;;;;;;8.57;5.80;;;2.30;80.60;;;;;;4955629;28;20031;-77
2023/12/17 01:31:21;;;;;;;10.25;5.88;;;2.40;80.40;;;;;;4955834;29;20043;-77
2023/12/17 01:33:46;;;;;;;8.30;4.95;;;2.30;80.20;;;;;;4955453;29;20476;-77
2023/12/17 01:36:12;;;;;;;7.88;5.35;;;2.30;80.10;;;;;;4955340;29;20024;-77
2023/12/17 01:38:37;;;;;;;8.75;6.05;;;2.30;80.00;;;;;;4938183;29;20023;-77
2023/12/17 01:41:03;;;;;;;8.60;5.85;;;2.30;79.80;;;;;;4955374;28;20514;-76
2023/12/17 01:43:29;;;;;;;12.52;7.28;;;2.30;79.60;;;;;;4955328;29;20046;-77
2023/12/17 01:45:55;;;;;;;10.02;6.03;;;2.30;79.50;;;;;;4955191;28;20461;-76
2023/12/17 01:48:26;;;;;;;11.57;6.65;;;2.30;79.30;;;;;;4955286;29;20023;-77
2023/12/17 01:50:53;;;;;;;8.38;5.90;;;2.30;78.60;;;;;;4938070;29;20027;-77
2023/12/17 01:53:19;;;;;;;9.45;5.47;;;2.20;78.40;;;;;;4938218;29;20420;-76
2023/12/17 01:55:46;;;;;;;7.68;4.95;;;2.10;78.30;;;;;;4937794;29;20493;-76
2023/12/17 01:58:12;;;;;;;7.55;4.70;;;2.00;78.70;;;;;;4955120;28;20023;-76
2023/12/17 02:00:38;;;;;;;6.63;4.68;;;1.90;79.00;;;;;;4938324;29;20114;-76
2023/12/17 02:03:04;;;;;;;8.00;4.85;;;1.90;79.30;;;;;;4937960;29;20506;-76
2023/12/17 02:05:36;;;;;;;6.22;4.22;;;2.00;79.50;;;;;;4937918;29;20058;-76
2023/12/17 02:08:03;;;;;;;6.25;4.15;;;2.00;79.70;;;;;;4954912;28;20110;-74
2023/12/17 02:10:29;;;;;;;6.03;4.53;;;2.00;79.90;;;;;;4954527;29;20464;-75
2023/12/17 02:12:57;;;;;;;6.38;4.80;;;2.00;79.70;;;;;;4937860;29;20031;-76
2023/12/17 02:15:22;;;;;;;7.13;5.15;;;2.10;79.70;;;;;;4954985;29;20373;-76
2023/12/17 02:17:48;;;;;;;7.28;4.90;;;2.10;79.80;;;;;;4954824;29;20071;-75
2023/12/17 02:20:14;;;;;;;8.85;5.07;;;2.00;79.70;;;;;;4937940;29;20052;-74
2023/12/17 02:22:41;;;;;;;7.03;4.63;;;2.00;80.00;;;;;;4937647;29;20447;-75
2023/12/17 02:25:08;;;;;;;7.40;4.75;;;1.90;80.40;;;;;;4937345;29;20488;-75
2023/12/17 02:27:33;;;;;;;6.18;4.43;;;1.90;80.70;;;;;;4937505;29;20042;-75
2023/12/17 02:29:59;;;;;;;7.60;4.65;;;1.90;80.80;;;;;;4937846;29;20027;-76
2023/12/17 02:32:25;;;;;;;6.60;4.60;;;2.00;81.00;;;;;;4937639;29;20038;-76
2023/12/17 02:34:51;;;;;;;8.23;4.45;;;2.00;81.00;;;;;;4937635;29;20042;-76
2023/12/17 02:37:17;;;;;;;6.05;3.67;;;2.00;80.80;;;;;;4937832;29;20110;-76
2023/12/17 02:39:43;;;;;;;5.88;4.30;;;2.00;80.70;;;;;;4937772;29;20054;-75
2023/12/17 02:42:09;;;;;;;5.97;3.70;;;2.00;80.50;;;;;;4954565;28;20504;-76
2023/12/17 02:44:35;;;;;;;8.20;4.57;;;2.00;80.50;;;;;;4937751;29;20023;-76
2023/12/17 02:47:00;;;;;;;10.15;4.85;;;2.00;80.10;;;;;;4937326;29;20027;-76
2023/12/17 02:49:27;;;;;;;10.10;4.90;;;2.00;80.30;;;;;;4937270;29;20034;-76
2023/12/17 02:51:54;;;;;;;8.10;4.65;;;1.90;80.50;;;;;;4937767;29;20033;-75
2023/12/17 02:54:23;;;;;;;14.80;5.63;;;1.90;80.90;;;;;;4921920;29;20043;-76
2023/12/17 02:56:49;;;;;;;7.60;4.80;;;1.90;81.00;;;;;;4937622;29;20028;-76
2023/12/17 02:59:15;;;;;;;8.18;4.97;;;1.90;80.90;;;;;;4937313;29;20027;-76
2023/12/17 03:01:41;;;;;;;8.98;5.28;;;1.90;80.90;;;;;;4937592;29;20026;-76
2023/12/17 03:04:08;;;;;;;8.30;4.57;;;1.80;80.80;;;;;;4954446;29;20028;-76
2023/12/17 03:06:33;;;;;;;6.75;4.18;;;1.80;80.50;;;;;;4954484;29;20087;-75
2023/12/17 03:08:59;;;;;;;9.60;4.50;;;1.80;80.40;;;;;;4937255;29;20398;-76
2023/12/17 03:11:25;;;;;;;9.73;5.03;;;1.80;80.50;;;;;;4937338;29;20023;-75
2023/12/17 03:13:51;;;;;;;7.78;4.53;;;1.70;80.50;;;;;;4937145;29;20039;-75
2023/12/17 03:16:16;;;;;;;7.40;4.78;;;1.70;80.80;;;;;;4937435;29;20360;-75
2023/12/17 03:18:43;;;;;;;7.18;4.40;;;1.70;81.10;;;;;;4937042;29;20027;-76
2023/12/17 03:21:09;;;;;;;9.60;5.32;;;1.70;81.10;;;;;;4939699;29;20546;-75
2023/12/17 03:23:51;;;;;;;6.85;4.43;;;1.80;80.90;;;;;;4940599;28;20023;-76
2023/12/17 03:26:32;;;;;;;10.05;5.00;;;1.80;80.80;;;;;;4940411;29;20038;-76
2023/12/17 03:28:58;;;;;;;12.30;6.15;;;1.80;80.90;;;;;;4957907;29;20027;-76
2023/12/17 03:31:23;;;;;;;7.65;5.25;;;1.70;81.00;;;;;;4957666;28;20488;-76
2023/12/17 03:33:49;;;;;;;8.20;5.00;;;1.70;81.00;;;;;;4940539;29;20134;-76
2023/12/17 03:36:20;;;;;;;8.73;4.82;;;1.80;80.90;;;;;;4939905;29;20396;-75
2023/12/17 03:38:46;;;;;;;8.07;4.63;;;1.80;80.70;;;;;;4940359;29;20035;-75
2023/12/17 03:41:39;;;;;;;6.22;3.78;;;1.80;81.30;;;;;;4940403;29;20535;-75
2023/12/17 03:44:10;;;;;;;5.97;3.22;;;1.90;80.50;;;;;;4957234;29;20038;-75
2023/12/17 03:46:35;;;;;;;6.13;4.10;;;1.80;80.10;;;;;;4957288;28;20365;-75
2023/12/17 03:49:01;;;;;;;6.38;3.70;;;1.60;80.50;;;;;;4940461;29;20028;-75
2023/12/17 03:56:30;;;;;;;4.60;3.42;;;1.40;81.50;;;;;;4955643;29;19929;-76
2023/12/17 03:58:55;;;;;;;6.05;4.05;;;1.30;81.90;;;;;;4940107;29;20023;-76
2023/12/17 04:01:48;;;;;;;9.63;4.63;;;1.20;82.80;;;;;;5020975;23;20058;-76
2023/12/17 04:04:13;;;;;;;5.55;3.80;;;1.20;83.50;;;;;;4939476;29;20066;-76
2023/12/17 04:06:59;;;;;;;8.30;4.32;;;1.20;83.60;;;;;;4947485;29;20023;-77
2023/12/17 04:09:34;;;;;;;9.48;4.15;;;1.30;83.30;;;;;;4957166;29;20478;-77
2023/12/17 04:12:03;;;;;;;6.57;3.72;;;1.30;83.50;;;;;;4958378;29;20551;-76
2023/12/17 04:14:28;;;;;;;5.55;3.80;;;1.30;83.30;;;;;;4940282;29;20428;-76
2023/12/17 04:16:54;;;;;;;5.60;3.63;;;1.40;83.10;;;;;;4939559;29;20023;-76
2023/12/17 04:19:19;;;;;;;5.05;2.92;;;1.40;82.80;;;;;;4939889;29;20027;-76
2023/12/17 04:21:45;;;;;;;6.53;3.38;;;1.50;82.40;;;;;;4939526;29;20063;-75
2023/12/17 04:24:10;;;;;;;6.20;3.42;;;1.50;82.30;;;;;;4939458;29;20114;-75
2023/12/17 04:26:36;;;;;;;6.68;4.18;;;1.50;82.50;;;;;;4939255;29;20075;-75
2023/12/17 04:29:02;;;;;;;8.63;4.10;;;1.40;82.40;;;;;;4939299;29;20031;-75
2023/12/17 04:31:27;;;;;;;7.65;4.00;;;1.50;82.80;;;;;;4938966;29;20468;-76
2023/12/17 04:33:53;;;;;;;5.75;3.60;;;1.40;82.60;;;;;;4956371;29;20039;-75
2023/12/17 04:36:18;;;;;;;6.97;3.65;;;1.40;82.50;;;;;;4956356;28;20038;-75
2023/12/17 04:38:46;;;;;;;5.53;3.55;;;1.50;82.50;;;;;;4956226;28;20027;-76
2023/12/17 04:41:12;;;;;;;8.77;4.30;;;1.50;82.30;;;;;;4939101;29;20025;-75
2023/12/17 04:43:38;;;;;;;8.77;4.07;;;1.50;82.30;;;;;;4939045;29;20027;-78
2023/12/17 04:46:04;;;;;;;8.65;4.00;;;1.40;82.40;;;;;;4938796;29;20035;-77
2023/12/17 04:48:29;;;;;;;7.97;3.80;;;1.40;82.40;;;;;;4938488;29;20082;-76
2023/12/17 04:50:55;;;;;;;7.38;4.03;;;1.40;82.60;;;;;;4938607;29;20023;-76
2023/12/17 04:53:20;;;;;;;6.15;3.45;;;1.50;82.50;;;;;;4939047;29;20035;-77
2023/12/17 04:55:46;;;;;;;5.28;3.22;;;1.50;82.30;;;;;;4954879;28;20042;-77
2023/12/17 04:58:12;;;;;;;4.97;2.80;;;1.60;81.90;;;;;;4957442;28;20058;-77
2023/12/17 05:00:48;;;;;;;4.13;2.72;;;1.60;81.70;;;;;;4957677;28;20038;-77
2023/12/17 05:03:13;;;;;;;4.10;3.00;;;1.60;81.10;;;;;;4975078;28;20031;-77
2023/12/17 05:06:14;;;;;;;11.43;3.50;;;1.50;80.70;;;;;;4974936;28;20022;-77
2023/12/17 05:08:59;;;;;;;;;;;;;;;;;;;;;
2023/12/17 05:11:25;;;;;;;5.47;3.53;;;1.40;80.40;;;;;;4955780;29;20023;-77
2023/12/17 05:14:31;;;;;;;4.75;2.90;;;1.40;80.00;;;;;;4938216;29;20126;-76
2023/12/17 05:16:57;;;;;;;;;;;1.30;80.10;;;;;;4919059;29;20039;-77
2023/12/17 05:19:22;;;;;;;9.02;3.78;;;1.30;80.60;;;;;;4945166;23;19926;-77
2023/12/17 05:21:48;;;;;;;4.85;3.38;;;1.20;81.10;;;;;;4938706;29;20047;-76
2023/12/17 05:24:13;;;;;;;5.13;2.90;;;1.20;81.40;;;;;;4955528;28;20031;-76
2023/12/17 05:26:39;;;;;;;4.60;3.35;;;1.20;81.40;;;;;;4955311;29;20062;-76
2023/12/17 05:29:04;;;;;;;6.40;3.47;;;1.20;81.30;;;;;;4955349;29;20106;-76
2023/12/17 05:31:30;;;;;;;6.63;4.80;;;1.30;81.30;;;;;;4938074;29;20110;-76
2023/12/17 05:33:56;;;;;;;7.70;4.78;;;1.30;81.00;;;;;;4955064;28;20041;-76
2023/12/17 05:36:21;;;;;;;5.40;3.67;;;1.30;80.80;;;;;;4955053;29;20028;-76
2023/12/17 05:38:47;;;;;;;6.63;3.67;;;1.30;80.50;;;;;;4955272;29;20389;-75
2023/12/17 05:41:12;;;;;;;5.22;2.67;;;1.30;80.30;;;;;;4955304;29;20023;-75
2023/12/17 05:43:38;;;;;;;5.95;3.72;;;1.30;80.20;;;;;;4954394;28;20468;-75
2023/12/17 05:46:04;;;;;;;5.25;3.55;;;1.30;80.10;;;;;;4955242;28;20368;-75
2023/12/17 05:48:30;;;;;;;6.28;3.85;;;1.30;80.10;;;;;;4919195;29;20111;-75
2023/12/17 05:50:55;;;;;;;6.72;3.75;;;1.20;80.00;;;;;;4919063;29;20063;-74
2023/12/17 05:53:21;;;;;;;7.20;3.78;;;1.20;79.80;;;;;;4935501;29;20428;-75
2023/12/17 05:55:46;;;;;;;6.65;3.80;;;1.20;79.80;;;;;;4918758;29;20032;-74
2023/12/17 05:58:12;;;;;;;8.75;3.67;;;1.30;80.00;;;;;;4918870;29;20028;-74
2023/12/17 06:00:37;;;;;;;8.13;4.28;;;1.30;79.90;;;;;;4918797;29;20035;-75
2023/12/17 06:03:03;;;;;;;10.35;6.30;;;1.30;79.60;;;;;;4918754;29;20069;-76
2023/12/17 06:05:28;;;;;;;18.40;8.60;;;1.30;79.40;;;;;;4918719;29;20118;-76
2023/12/17 06:07:54;;;;;;;19.55;10.13;;;1.30;79.30;;;;;;4935965;29;20028;-77
2023/12/17 06:10:20;;;;;;;17.90;7.47;;;1.20;78.90;;;;;;4918821;29;20035;-76
2023/12/17 06:12:45;;;;;;;10.88;6.05;;;1.20;79.20;;;;;;4918548;29;20031;-77
2023/12/17 06:15:11;;;;;;;10.65;5.82;;;1.10;79.50;;;;;;4936018;29;20040;-76
2023/12/17 06:17:36;;;;;;;10.30;5.53;;;1.10;79.60;;;;;;4925458;29;20115;-75
2023/12/17 06:20:03;;;;;;;12.02;5.20;;;1.10;79.70;;;;;;4920655;29;20052;-74
2023/12/17 06:22:32;;;;;;;6.20;3.70;;;1.10;79.80;;;;;;4921506;29;20510;-74
2023/12/17 06:24:58;;;;;;;9.05;4.35;;;1.10;80.10;;;;;;4935858;29;20122;-75
2023/12/17 06:27:23;;;;;;;8.23;4.38;;;1.10;80.10;;;;;;4918452;29;20477;-75
2023/12/17 06:29:52;;;;;;;5.13;3.63;;;1.10;80.30;;;;;;4918492;29;20038;-75
2023/12/17 06:32:17;;;;;;;4.65;3.10;;;1.10;80.50;;;;;;4903206;29;20028;-76
2023/12/17 06:34:43;;;;;;;5.35;3.17;;;1.10;80.50;;;;;;4935517;29;20042;-76
2023/12/17 06:37:10;;;;;;;5.05;3.30;;;1.20;80.60;;;;;;4918194;29;20031;-75
2023/12/17 06:39:36;;;;;;;4.78;3.25;;;1.20;80.40;;;;;;4918367;29;20058;-75
2023/12/17 06:42:03;;;;;;;4.63;3.13;;;1.20;80.40;;;;;;4935461;29;20035;-77
2023/12/17 06:44:28;;;;;;;5.18;3.40;;;1.30;80.30;;;;;;4918653;29;20034;-75
2023/12/17 06:46:54;;;;;;;5.90;3.17;;;1.40;80.30;;;;;;4935565;29;20024;-76
2023/12/17 06:49:23;;;;;;;4.82;3.25;;;1.40;80.00;;;;;;4935398;29;20046;-75
2023/12/17 06:51:48;;;;;;;7.13;4.50;;;1.50;80.00;;;;;;4918523;29;20032;-76
2023/12/17 06:54:14;;;;;;;7.30;3.95;;;1.50;80.10;;;;;;4918152;29;20445;-76
2023/12/17 06:56:50;;;;;;;;;;;;;;;;;;;;;
2023/12/17 06:59:18;;;;;;;9.27;4.40;;;1.50;78.80;;;;;;4939051;29;20489;-75
2023/12/17 07:01:52;;;;;;;15.25;6.60;;;1.50;78.80;;;;;;4938617;29;20478;-75
2023/12/17 07:04:20;;;;;;;11.68;5.97;;;1.50;78.80;;;;;;4921885;29;20051;-75
2023/12/17 07:06:46;;;;;;;8.25;5.40;;;1.50;78.80;;;;;;4921690;29;20385;-76
2023/12/17 07:09:12;;;;;;;11.38;6.72;;;1.50;78.90;;;;;;4921880;29;20078;-76
2023/12/17 07:11:37;;;;;;;10.13;5.70;;;1.50;79.00;;;;;;4922928;29;20485;-76
2023/12/17 07:14:03;;;;;;;8.07;4.13;;;1.50;79.00;;;;;;4939678;29;20046;-76
2023/12/17 07:16:29;;;;;;;7.78;4.55;;;1.40;79.00;;;;;;4940555;29;20488;-77
2023/12/17 07:18:54;;;;;;;9.65;5.75;;;1.50;79.00;;;;;;4957322;29;20556;-76
2023/12/17 07:21:20;;;;;;;6.25;4.25;;;1.40;78.80;;;;;;4957333;29;20055;-76
2023/12/17 07:23:46;;;;;;;6.03;3.97;;;1.50;78.80;;;;;;4940246;29;20461;-76
2023/12/17 07:26:11;;;;;;;6.22;4.00;;;1.50;78.70;;;;;;4940518;29;20030;-75
2023/12/17 07:28:37;;;;;;;7.07;3.40;;;1.60;78.50;;;;;;4957184;28;20027;-76
2023/12/17 07:31:03;;;;;;;9.35;4.10;;;1.70;78.20;;;;;;4940478;29;20460;-76
2023/12/17 07:33:29;;;;;;;6.70;3.97;;;1.70;77.90;;;;;;4957507;28;20578;-77
2023/12/17 07:35:55;;;;;;;7.45;3.92;;;1.80;77.50;;;;;;4957528;29;20039;-76
2023/12/17 07:38:20;;;;;;;6.82;3.88;;;1.90;77.40;;;;;;4940043;29;20078;-76
2023/12/17 07:40:46;;;;;;;9.65;5.80;;;1.90;78.20;;;;;;4957580;29;20035;-75
2023/12/17 07:43:11;;;;;;;12.07;6.55;;;2.00;77.10;;;;;;4940582;29;20031;-76
2023/12/17 07:45:37;;;;;;;17.77;9.75;;;2.00;76.90;;;;;;4941012;29;20034;-76
2023/12/17 07:48:03;;;;;;;19.10;9.70;;;2.00;76.40;;;;;;4958894;29;20083;-76
2023/12/17 07:50:29;;;;;;;12.43;6.80;;;2.00;76.00;;;;;;4940343;29;20069;-75
2023/12/17 07:52:55;;;;;;;9.63;5.30;;;2.00;75.90;;;;;;4939889;29;20028;-75
2023/12/17 07:55:22;;;;;;;9.43;5.78;;;1.70;76.40;;;;;;4939534;29;20488;-76
2023/12/17 07:57:47;;;;;;;11.38;5.95;;;1.80;76.80;;;;;;4940563;29;20111;-76
2023/12/17 08:00:14;;;;;;;12.32;7.22;;;1.90;77.20;;;;;;4959698;28;20055;-76
2023/12/17 08:02:41;;;;;;;12.90;6.57;;;1.90;77.00;;;;;;4940448;29;20034;-75
2023/12/17 08:05:08;;;;;;;11.43;6.70;;;2.00;76.80;;;;;;4944737;29;20122;-75
2023/12/17 08:07:38;;;;;;;10.15;6.40;;;2.10;76.80;;;;;;4942289;29;20051;-77
2023/12/17 08:10:07;;;;;;;11.02;7.05;;;2.20;76.60;;;;;;4924671;29;20028;-77
2023/12/17 08:12:33;;;;;;;19.80;9.75;;;2.30;76.50;;;;;;4946725;29;20592;-76
2023/12/17 08:15:00;;;;;;;17.73;8.63;;;2.40;75.20;;;;;;4940315;29;20492;-75
2023/12/17 08:17:26;;;;;;;16.42;8.07;;;2.40;75.40;;;;;;4939259;29;20036;-76
2023/12/17 08:19:52;;;;;;;10.82;6.40;;;2.50;75.20;;;;;;4956344;29;20055;-76
2023/12/17 08:22:17;;;;;;;10.25;6.43;;;2.60;74.90;;;;;;4939600;29;20033;-76
2023/12/17 08:24:43;;;;;;;11.73;5.53;;;2.80;74.70;;;;;;4939452;29;20107;-73
2023/12/17 08:27:09;;;;;;;15.43;8.70;;;3.20;87.40;;;;;;4938958;29;20034;-76
2023/12/17 08:29:34;;;;;;;15.88;8.07;;;3.90;94.00;;;;;;4923825;29;20099;-75
2023/12/17 08:32:00;;;;;;;15.40;9.60;;;4.10;93.00;;;;;;4939103;29;20030;-73
2023/12/17 08:34:29;;;;;;;16.88;9.10;;;4.20;86.30;;;;;;4956308;29;20551;-73
2023/12/17 08:36:56;;;;;;;16.85;9.25;;;4.40;79.20;;;;;;4956269;28;20033;-76
2023/12/17 08:39:23;;;;;;;20.17;8.88;;;4.50;75.40;;;;;;4939328;29;20082;-74
2023/12/17 08:41:49;;;;;;;10.40;6.85;;;4.70;73.50;;;;;;4939004;29;20028;-74
2023/12/17 08:44:19;;;;;;;10.43;7.07;;;5.00;71.20;;;;;;4938891;29;20027;-75
2023/12/17 08:46:45;;;;;;;10.07;6.43;;;5.20;69.50;;;;;;4939172;29;20406;-75
2023/12/17 08:49:11;;;;;;;8.82;5.80;;;5.50;68.90;;;;;;4923519;29;20074;-75
2023/12/17 08:51:37;;;;;;;14.05;10.98;;;5.70;67.20;;;;;;4939160;29;20026;-74
2023/12/17 08:54:03;;;;;;;17.52;12.65;;;6.10;65.10;;;;;;4956049;29;20035;-73
2023/12/17 08:56:29;;;;;;;34.75;22.83;;;6.30;62.60;;;;;;4938666;29;20031;-73
2023/12/17 08:58:54;;;;;;;35.30;23.83;;;6.60;60.70;;;;;;4956024;29;20400;-73
2023/12/17 09:01:20;;;;;;;35.08;23.38;;;6.80;59.80;;;;;;4938946;29;20509;-76
2023/12/17 09:03:46;;;;;;;19.48;13.90;;;7.00;58.80;;;;;;4955830;29;20038;-77
2023/12/17 09:06:11;;;;;;;12.07;9.30;;;7.10;58.00;;;;;;4938593;29;20035;-76
2023/12/17 09:08:37;;;;;;;7.15;5.50;;;7.30;57.50;;;;;;4938570;29;20096;-77
2023/12/17 09:11:03;;;;;;;6.72;5.38;;;7.60;56.10;;;;;;4938652;29;20031;-77
2023/12/17 09:13:28;;;;;;;8.32;5.78;;;7.80;54.50;;;;;;4938400;29;20050;-76
2023/12/17 09:15:54;;;;;;;9.07;6.30;;;8.00;54.60;;;;;;4955456;29;20513;-78
2023/12/17 09:18:19;;;;;;;9.68;7.80;;;8.20;53.70;;;;;;4955660;28;20031;-77
2023/12/17 09:23:21;;;;;;;11.50;9.00;;;8.50;53.20;;;;;;5144158;23;20059;-75
2023/12/17 09:25:46;;;;;;;13.43;10.00;;;8.70;52.90;;;;;;4938217;29;20035;-75
2023/12/17 09:28:12;;;;;;;15.07;10.55;;;8.80;51.80;;;;;;4938778;29;20485;-75
2023/12/17 09:30:37;;;;;;;15.15;11.85;;;8.90;52.10;;;;;;4955540;29;20535;-78
2023/12/17 09:33:03;;;;;;;15.15;11.60;;;9.10;51.80;;;;;;4938421;29;20477;-75
2023/12/17 09:35:28;;;;;;;16.38;11.82;;;9.20;50.80;;;;;;4955344;29;20079;-77
2023/12/17 09:37:54;;;;;;;12.52;10.10;;;9.40;50.60;;;;;;4938463;29;20034;-75
2023/12/17 09:42:56;;;;;;;16.15;10.98;;;9.60;50.30;;;;;;5822831;23;20066;-77
2023/12/17 09:45:23;;;;;;;12.30;9.18;;;9.70;49.70;;;;;;4938066;29;20031;-76
2023/12/17 09:47:48;;;;;;;11.18;9.85;;;9.90;49.20;;;;;;4937990;29;20027;-76
2023/12/17 09:50:17;;;;;;;10.25;8.98;;;10.00;48.40;;;;;;4937900;29;20118;-77
2023/12/17 09:52:43;;;;;;;12.23;9.20;;;10.10;48.20;;;;;;4938160;29;20097;-78
2023/12/17 09:55:12;;;;;;;13.00;10.02;;;10.30;47.20;;;;;;4937932;29;20477;-77
2023/12/17 09:58:26;;;;;;;16.85;11.30;;;10.40;47.70;;;;;;5468995;23;20506;-75
2023/12/17 10:00:52;;;;;;;18.20;13.80;;;10.40;46.20;;;;;;4899200;29;20123;-76
2023/12/17 10:03:20;;;;;;;22.10;12.60;;;10.10;46.60;;;;;;5044031;23;20125;-76
2023/12/17 10:05:50;;;;;;;14.75;10.23;;;9.80;47.70;;;;;;4944056;23;20420;-77
2023/12/17 10:08:17;;;;;;;13.50;8.77;;;10.00;47.70;;;;;;4937807;29;20023;-76
2023/12/17 10:10:43;;;;;;;10.20;8.18;;;10.20;47.40;;;;;;4938068;29;20026;-75
2023/12/17 10:13:09;;;;;;;14.30;7.85;;;10.50;47.10;;;;;;4955020;29;20392;-75
2023/12/17 10:15:36;;;;;;;12.20;7.30;;;10.90;46.10;;;;;;4937723;29;20135;-76
2023/12/17 10:18:08;;;;;;;8.30;5.78;;;11.10;45.40;;;;;;4959016;23;20058;-76
2023/12/17 10:21:26;;;;;;;8.27;5.32;;;11.10;44.70;;;;;;4934793;29;20031;-76
2023/12/17 10:23:53;;;;;;;8.18;4.93;;;11.40;43.30;;;;;;4922855;29;20039;-76
2023/12/17 10:26:22;;;;;;;6.15;4.75;;;11.60;43.10;;;;;;4920102;29;20028;-75
2023/12/17 10:43:39;;;;;;;;;;;;;;;;;;;;;
2023/12/17 10:46:07;;;;;;;3.95;3.45;;;13.60;38.40;;;;;;5015414;23;20287;-76
2023/12/17 10:48:32;;;;;;;5.32;4.13;;;13.80;38.00;;;;;;4941095;29;20477;-76
2023/12/17 10:50:59;;;;;;;5.03;4.10;;;14.10;37.20;;;;;;4958613;29;20031;-76
2023/12/17 10:53:25;;;;;;;5.85;4.30;;;14.50;36.20;;;;;;4939901;29;20358;-76
2023/12/17 10:55:51;;;;;;;4.85;3.80;;;14.80;35.30;;;;;;4938405;29;20035;-76
2023/12/17 11:02:33;;;;;;;;;;;;;;;;;;;;;
2023/12/17 11:08:11;;;;;;;5.72;4.20;;;17.60;29.40;;;;;;5207120;23;20417;-78
2023/12/17 11:13:13;;;;;;;;;;;19.10;25.80;;;;;;2397499;23;20010;-79
2023/12/17 11:15:38;;;;;;;5.40;4.00;;;19.80;24.20;;;;;;4940900;29;19910;-77
2023/12/17 11:33:38;;;;;;;9.60;7.55;;;24.10;18.30;;;;;;4946408;29;19918;-77
2023/12/17 11:36:05;;;;;;;15.35;10.73;;;24.80;18.00;;;;;;4957744;29;20472;-77
2023/12/17 11:38:31;;;;;;;11.38;6.90;;;25.10;16.50;;;;;;4940364;29;20090;-78
2023/12/17 11:41:54;;;;;;;;;;;;;;;;;;;;;
2023/12/17 11:44:23;;;;;;;9.73;5.00;;;24.90;16.90;;;;;;4901231;28;20037;-79
2023/12/17 11:46:49;;;;;;;7.40;4.70;;;25.70;15.50;;;;;;5109902;23;20055;-79
2023/12/17 11:49:24;;;;;;;5.93;4.70;;;26.40;14.80;;;;;;4942494;29;20039;-80
2023/12/17 11:55:00;;;;;;;5.43;4.30;;;27.70;13.10;;;;;;5013511;23;19914;-80
2023/12/17 12:00:15;;;;;;;9.98;6.47;;;29.00;12.00;;;;;;4901927;28;20522;-79
2023/12/17 12:02:41;;;;;;;10.43;6.40;;;29.60;11.30;;;;;;4940188;29;20035;-79
2023/12/17 12:05:07;;;;;;;6.18;4.20;;;30.10;11.10;;;;;;4940072;29;20337;-80
2023/12/17 12:07:32;;;;;;;6.13;3.55;;;30.50;10.70;;;;;;4939791;29;20096;-80
2023/12/17 12:10:05;;;;;;;7.00;3.88;;;31.10;10.50;;;;;;4941167;29;20038;-80
2023/12/17 12:12:34;;;;;;;3.85;2.88;;;31.40;9.40;;;;;;4941322;29;20026;-80
2023/12/17 12:15:02;;;;;;;5.00;3.13;;;31.70;9.10;;;;;;4939764;29;20047;-79
2023/12/17 12:17:38;;;;;;;4.47;3.10;;;32.00;8.70;;;;;;4939895;29;20038;-80
2023/12/17 12:20:10;;;;;;;4.47;3.40;;;31.90;8.40;;;;;;4940800;29;20122;-80
2023/12/17 12:22:38;;;;;;;4.22;3.30;;;32.10;8.40;;;;;;4939966;29;20019;-81
2023/12/17 12:25:05;;;;;;;3.45;2.92;;;32.10;8.10;;;;;;4958275;29;20086;-82
2023/12/17 12:27:31;;;;;;;5.47;2.53;;;32.10;7.80;;;;;;4944551;29;20027;-81
2023/12/17 12:29:58;;;;;;;3.67;2.17;;;31.90;7.30;;;;;;4941857;29;20026;-79
2023/12/17 12:32:33;;;;;;;2.92;2.15;;;31.90;7.40;;;;;;4943557;29;20070;-80
2023/12/17 12:35:00;;;;;;;3.60;2.28;;;32.10;7.70;;;;;;4941986;29;20462;-86
2023/12/17 12:37:36;;;;;;;3.00;2.58;;;32.20;8.00;;;;;;4940673;29;20028;-82
2023/12/17 12:40:03;;;;;;;3.92;2.05;;;31.90;8.20;;;;;;4939750;29;20082;-81
2023/12/17 12:42:31;;;;;;;2.95;2.30;;;32.20;8.80;;;;;;4956596;29;20038;-81
2023/12/17 12:44:57;;;;;;;2.60;2.40;;;32.90;7.80;;;;;;4939706;29;20039;-82
2023/12/17 12:47:23;;;;;;;4.07;3.10;;;33.30;7.80;;;;;;4956604;29;20019;-81
2023/12/17 12:49:49;;;;;;;3.50;2.92;;;33.90;6.80;;;;;;4957562;28;20104;-79
2023/12/17 12:52:16;;;;;;;3.60;3.30;;;34.30;6.60;;;;;;4957017;28;20019;-82
2023/12/17 12:54:50;;;;;;;3.97;3.58;;;34.60;6.40;;;;;;4939345;29;20110;-80
2023/12/17 12:57:16;;;;;;;3.30;3.00;;;34.90;6.20;;;;;;4957166;29;20024;-79
2023/12/17 12:59:45;;;;;;;4.47;3.38;;;35.20;6.40;;;;;;4939350;29;20078;-80
2023/12/17 13:02:12;;;;;;;5.38;3.70;;;35.30;6.20;;;;;;4939521;29;20031;-80
2023/12/17 13:04:38;;;;;;;3.47;2.92;;;35.50;5.90;;;;;;4938365;29;20106;-79
2023/12/17 13:07:04;;;;;;;3.08;2.70;;;35.50;5.80;;;;;;4941872;29;20135;-80
2023/12/17 13:09:30;;;;;;;3.42;3.00;;;35.60;6.20;;;;;;4940054;29;20059;-78
2023/12/17 13:11:55;;;;;;;3.42;3.03;;;35.40;6.40;;;;;;4938969;29;20024;-79
2023/12/17 13:14:21;;;;;;;2.92;2.63;;;35.40;6.80;;;;;;4938959;29;20082;-79
2023/12/17 13:17:12;;;;;;;5.15;2.97;;;35.40;7.00;;;;;;4938905;29;20023;-79
2023/12/17 13:19:39;;;;;;;7.10;4.50;;;35.30;6.90;;;;;;4930503;29;20035;-79
2023/12/17 13:22:05;;;;;;;4.43;4.03;;;35.30;6.30;;;;;;4938760;29;20038;-77
2023/12/17 13:24:30;;;;;;;4.25;3.63;;;35.50;5.90;;;;;;4938167;29;20023;-77
2023/12/17 13:26:56;;;;;;;3.97;3.60;;;35.70;5.70;;;;;;4955185;29;20055;-78
2023/12/17 13:29:21;;;;;;;5.22;3.33;;;35.50;5.70;;;;;;4955943;28;20102;-78
2023/12/17 13:31:47;;;;;;;3.95;3.55;;;35.00;6.40;;;;;;4938531;29;20027;-77
2023/12/17 13:34:16;;;;;;;3.67;3.25;;;34.60;6.70;;;;;;4938019;29;20067;-78
2023/12/17 13:36:42;;;;;;;4.57;3.50;;;34.20;6.80;;;;;;4955335;29;20020;-78
2023/12/17 13:39:07;;;;;;;5.03;3.97;;;33.70;7.10;;;;;;4938048;29;20390;-77
2023/12/17 13:41:33;;;;;;;5.78;4.78;;;33.10;8.00;;;;;;4939051;29;20022;-76
2023/12/17 13:43:59;;;;;;;8.85;4.80;;;32.60;8.40;;;;;;4939183;29;20476;-80
2023/12/17 13:46:24;;;;;;;7.00;5.85;;;32.40;8.60;;;;;;4938741;29;20051;-78
2023/12/17 13:48:50;;;;;;;10.70;8.25;;;32.40;8.90;;;;;;4955543;28;20031;-76
2023/12/17 13:51:17;;;;;;;10.23;7.60;;;32.40;8.60;;;;;;4937627;29;20189;-75
2023/12/17 13:53:43;;;;;;;4.20;3.30;;;32.20;8.90;;;;;;4938220;29;20043;-76
2023/12/17 13:56:08;;;;;;;3.05;2.53;;;31.70;9.10;;;;;;4938120;29;20110;-77
2023/12/17 13:58:34;;;;;;;2.70;2.50;;;31.30;9.70;;;;;;4955285;29;20107;-78
2023/12/17 14:00:59;;;;;;;4.85;2.05;;;31.00;10.00;;;;;;4937964;29;20031;-79
2023/12/17 14:03:26;;;;;;;2.92;2.63;;;30.70;9.60;;;;;;4938390;29;20030;-79